createdAt,value
2018-05-08T00:00:14.721Z,2.60
2018-05-08T00:02:42.192Z,2.87
2018-05-08T00:05:09.632Z,2.80
2018-05-08T00:07:37.102Z,2.77
2018-05-08T00:10:04.569Z,2.97
2018-05-08T00:12:32.034Z,2.70
2018-05-08T00:14:59.516Z,2.93
2018-05-08T00:17:26.969Z,2.33
2018-05-08T00:19:54.432Z,2.40
2018-05-08T00:22:21.891Z,2.70
2018-05-08T00:24:49.366Z,3.07
2018-05-08T00:27:16.844Z,3.30
2018-05-08T00:29:44.302Z,2.90
2018-05-08T00:32:11.773Z,3.10
2018-05-08T00:34:39.234Z,2.93
2018-05-08T00:37:06.690Z,2.60
2018-05-08T00:39:34.145Z,3.00
2018-05-08T00:42:01.623Z,3.00
2018-05-08T00:44:29.088Z,2.40
2018-05-08T00:46:56.537Z,3.30
2018-05-08T00:49:23.989Z,2.70
2018-05-08T00:51:51.438Z,2.97
2018-05-08T00:57:14.027Z,2.80
2018-05-08T00:59:41.479Z,2.43
2018-05-08T01:02:09.059Z,2.10
2018-05-08T01:04:36.519Z,2.77
2018-05-08T01:07:03.975Z,3.00
2018-05-08T01:09:31.438Z,2.60
2018-05-08T01:11:58.892Z,2.43
2018-05-08T01:14:26.354Z,2.63
2018-05-08T01:16:53.798Z,2.83
2018-05-08T01:19:21.292Z,2.10
2018-05-08T01:21:48.805Z,2.57
2018-05-08T01:24:16.255Z,2.63
2018-05-08T01:26:43.748Z,2.93
2018-05-08T01:29:11.226Z,2.50
2018-05-08T01:31:38.734Z,3.00
2018-05-08T01:34:06.162Z,3.10
2018-05-08T01:36:33.622Z,2.33
2018-05-08T01:39:01.136Z,2.50
2018-05-08T01:41:28.614Z,2.20
2018-05-08T01:43:56.071Z,2.83
2018-05-08T01:46:23.550Z,2.57
2018-05-08T01:48:52.071Z,2.97
2018-05-08T01:51:19.521Z,3.00
2018-05-08T01:53:46.970Z,3.27
2018-05-08T01:56:14.465Z,2.73
2018-05-08T01:58:41.916Z,2.47
2018-05-08T02:01:09.386Z,2.73
2018-05-08T02:03:36.853Z,3.30
2018-05-08T02:06:04.310Z,2.43
2018-05-08T02:08:31.761Z,2.80
2018-05-08T02:10:59.219Z,2.97
2018-05-08T02:13:26.661Z,2.50
2018-05-08T02:15:54.124Z,2.67
2018-05-08T02:18:21.616Z,3.00
2018-05-08T02:20:49.085Z,2.40
2018-05-08T02:23:16.567Z,3.10
2018-05-08T02:25:44.490Z,3.53
2018-05-08T02:28:12.013Z,2.50
2018-05-08T02:30:39.482Z,3.10
2018-05-08T02:33:07.005Z,2.57
2018-05-08T02:35:34.454Z,2.90
2018-05-08T02:38:01.912Z,2.60
2018-05-08T02:40:29.378Z,2.80
2018-05-08T02:42:56.854Z,2.67
2018-05-08T02:45:24.318Z,3.00
2018-05-08T02:47:51.790Z,3.07
2018-05-08T02:50:19.271Z,2.90
2018-05-08T02:52:46.735Z,3.93
2018-05-08T02:55:14.223Z,2.93
2018-05-08T02:57:41.684Z,2.83
2018-05-08T03:00:09.167Z,3.47
2018-05-08T03:02:36.626Z,3.00
2018-05-08T03:05:04.092Z,3.80
2018-05-08T03:07:31.572Z,3.10
2018-05-08T03:09:59.056Z,3.20
2018-05-08T03:12:26.530Z,3.40
2018-05-08T03:14:53.975Z,3.20
2018-05-08T03:17:21.439Z,4.17
2018-05-08T03:19:48.896Z,3.67
2018-05-08T03:22:16.395Z,2.97
2018-05-08T03:24:43.841Z,3.60
2018-05-08T03:27:11.294Z,3.63
2018-05-08T03:29:38.786Z,3.07
2018-05-08T03:32:06.296Z,3.23
2018-05-08T03:34:33.806Z,3.07
2018-05-08T03:37:01.261Z,3.67
2018-05-08T03:39:28.717Z,3.60
2018-05-08T03:41:56.200Z,3.93
2018-05-08T03:44:23.692Z,3.30
2018-05-08T03:46:51.126Z,4.13
2018-05-08T03:49:18.647Z,3.90
2018-05-08T03:51:46.103Z,3.23
2018-05-08T03:54:13.570Z,3.27
2018-05-08T03:56:41.052Z,3.50
2018-05-08T03:59:08.503Z,3.53
2018-05-08T04:01:47.547Z,3.03
2018-05-08T04:04:26.599Z,3.10
2018-05-08T04:07:05.864Z,3.77
2018-05-08T04:09:33.313Z,3.43
2018-05-08T04:12:00.749Z,3.40
2018-05-08T04:14:28.225Z,4.07
2018-05-08T04:16:55.677Z,3.30
2018-05-08T04:19:23.135Z,3.97
2018-05-08T04:21:50.610Z,3.87
2018-05-08T04:24:18.071Z,3.93
2018-05-08T04:26:45.596Z,3.77
2018-05-08T04:29:13.079Z,3.57
2018-05-08T04:31:40.626Z,3.37
2018-05-08T04:34:08.082Z,4.23
2018-05-08T04:36:35.572Z,4.03
2018-05-08T04:39:03.066Z,3.57
2018-05-08T04:41:30.754Z,3.80
2018-05-08T04:43:58.255Z,4.00
2018-05-08T04:46:26.065Z,4.40
2018-05-08T04:48:54.167Z,3.67
2018-05-08T04:51:21.695Z,3.83
2018-05-08T04:53:49.147Z,4.47
2018-05-08T04:56:16.753Z,4.70
2018-05-08T04:58:44.252Z,4.20
2018-05-08T05:01:11.724Z,3.87
2018-05-08T05:03:40.463Z,4.27
2018-05-08T05:06:08.010Z,4.00
2018-05-08T05:08:35.538Z,5.00
2018-05-08T05:11:03.091Z,4.33
2018-05-08T05:13:30.610Z,3.63
2018-05-08T05:15:58.128Z,4.20
2018-05-08T05:18:25.583Z,4.57
2018-05-08T05:20:53.184Z,4.20
2018-05-08T05:23:21.565Z,4.50
2018-05-08T05:25:50.599Z,4.10
2018-05-08T05:28:18.058Z,4.10
2018-05-08T05:30:45.511Z,3.90
2018-05-08T05:33:14.021Z,4.13
2018-05-08T05:35:41.696Z,3.93
2018-05-08T05:38:09.186Z,5.00
2018-05-08T05:40:37.133Z,3.90
2018-05-08T05:43:04.618Z,4.77
2018-05-08T05:45:32.101Z,3.17
2018-05-08T05:47:59.578Z,4.67
2018-05-08T05:50:27.095Z,4.00
2018-05-08T05:52:54.534Z,3.27
2018-05-08T05:55:22.036Z,3.83
2018-05-08T05:57:49.546Z,3.70
2018-05-08T06:00:17.069Z,4.67
2018-05-08T06:02:44.526Z,3.90
2018-05-08T06:05:12.020Z,4.10
2018-05-08T06:07:39.467Z,4.60
2018-05-08T06:10:06.949Z,3.70
2018-05-08T06:12:34.414Z,4.47
2018-05-08T06:15:01.873Z,4.57
2018-05-08T06:17:29.346Z,4.23
2018-05-08T06:19:56.811Z,3.80
2018-05-08T06:22:24.270Z,4.17
2018-05-08T06:24:51.793Z,4.70
2018-05-08T06:27:19.291Z,4.33
2018-05-08T06:29:46.797Z,4.57
2018-05-08T06:32:14.419Z,4.00
2018-05-08T06:34:41.932Z,3.77
2018-05-08T06:37:09.422Z,4.27
2018-05-08T06:39:36.985Z,4.50
2018-05-08T06:42:04.450Z,4.50
2018-05-08T06:44:31.931Z,4.40
2018-05-08T06:46:59.468Z,3.70
2018-05-08T06:49:26.927Z,4.37
2018-05-08T06:51:54.410Z,4.77
2018-05-08T06:54:21.923Z,4.47
2018-05-08T06:56:49.427Z,4.77
2018-05-08T06:59:16.923Z,4.73
2018-05-08T07:01:44.412Z,4.77
2018-05-08T07:04:11.881Z,5.00
2018-05-08T07:06:39.389Z,4.60
2018-05-08T07:09:06.926Z,5.90
2018-05-08T07:11:34.362Z,3.93
2018-05-08T07:14:01.879Z,4.80
2018-05-08T07:16:29.348Z,5.37
2018-05-08T07:18:56.911Z,4.70
2018-05-08T07:21:24.429Z,4.47
2018-05-08T07:23:51.940Z,4.97
2018-05-08T07:26:19.407Z,5.60
2018-05-08T07:28:46.883Z,5.23
2018-05-08T07:31:14.402Z,5.40
2018-05-08T07:33:41.914Z,5.40
2018-05-08T07:36:09.402Z,4.73
2018-05-08T07:38:36.899Z,5.00
2018-05-08T07:41:04.410Z,5.10
2018-05-08T07:43:31.880Z,5.93
2018-05-08T07:45:59.376Z,5.10
2018-05-08T07:48:26.895Z,5.37
2018-05-08T07:50:54.359Z,5.60
2018-05-08T07:53:21.842Z,7.20
2018-05-08T07:55:49.305Z,6.30
2018-05-08T07:58:16.783Z,4.90
2018-05-08T08:00:44.270Z,5.87
2018-05-08T08:03:11.881Z,5.70
2018-05-08T08:05:39.293Z,5.43
2018-05-08T08:08:06.782Z,6.03
2018-05-08T08:10:34.245Z,5.83
2018-05-08T08:13:01.759Z,6.00
2018-05-08T08:15:29.247Z,5.60
2018-05-08T08:17:56.746Z,6.60
2018-05-08T08:20:24.270Z,5.90
2018-05-08T08:22:51.795Z,7.00
2018-05-08T08:25:19.272Z,6.50
2018-05-08T08:27:46.759Z,6.57
2018-05-08T08:30:14.317Z,7.60
2018-05-08T08:32:41.874Z,7.20
2018-05-08T08:35:09.429Z,6.40
2018-05-08T08:37:36.883Z,7.33
2018-05-08T08:40:04.374Z,7.90
2018-05-08T08:42:31.870Z,7.80
2018-05-08T08:44:59.337Z,7.10
2018-05-08T08:47:26.796Z,7.83
2018-05-08T08:49:54.364Z,8.80
2018-05-08T08:52:21.955Z,7.50
2018-05-08T08:54:49.375Z,7.50
2018-05-08T08:57:16.863Z,7.10
2018-05-08T08:59:44.607Z,6.90
2018-05-08T09:02:13.599Z,7.63
2018-05-08T09:04:41.091Z,7.50
2018-05-08T09:07:08.578Z,7.50
2018-05-08T09:09:36.074Z,8.03
2018-05-08T09:12:03.551Z,7.40
2018-05-08T09:14:31.039Z,8.17
2018-05-08T09:16:58.532Z,7.33
2018-05-08T09:19:26.051Z,6.70
2018-05-08T09:21:53.574Z,7.40
2018-05-08T09:24:21.048Z,7.03
2018-05-08T09:26:48.557Z,8.40
2018-05-08T09:29:16.148Z,7.23
2018-05-08T09:31:43.643Z,8.00
2018-05-08T09:34:11.133Z,8.00
2018-05-08T09:36:38.640Z,7.17
2018-05-08T09:39:06.146Z,7.73
2018-05-08T09:41:33.644Z,7.80
2018-05-08T09:44:01.115Z,6.93
2018-05-08T09:46:28.591Z,7.00
2018-05-08T09:48:56.258Z,7.07
2018-05-08T09:51:23.643Z,7.43
2018-05-08T09:53:51.095Z,7.77
2018-05-08T09:56:18.585Z,7.00
2018-05-08T09:58:46.035Z,7.50
2018-05-08T10:01:13.556Z,6.53
2018-05-08T10:03:41.022Z,6.80
2018-05-08T10:06:08.538Z,6.47
2018-05-08T10:08:36.062Z,6.30
2018-05-08T10:11:03.560Z,6.03
2018-05-08T10:13:31.026Z,4.70
2018-05-08T10:15:58.520Z,5.80
2018-05-08T10:18:26.039Z,4.70
2018-05-08T10:20:53.549Z,5.20
2018-05-08T10:23:21.159Z,4.70
2018-05-08T10:25:48.652Z,4.73
2018-05-08T10:28:16.146Z,5.23
2018-05-08T10:30:43.667Z,5.73
2018-05-08T10:33:11.163Z,4.50
2018-05-08T10:35:38.674Z,4.10
2018-05-08T10:38:06.211Z,3.60
2018-05-08T10:40:33.726Z,3.80
2018-05-08T10:43:01.227Z,3.27
2018-05-08T10:45:28.713Z,4.00
2018-05-08T10:47:56.190Z,3.70
2018-05-08T10:50:23.746Z,3.63
2018-05-08T10:52:51.292Z,3.57
2018-05-08T10:55:18.852Z,3.17
2018-05-08T10:57:46.542Z,3.50
2018-05-08T11:00:14.075Z,3.50
2018-05-08T11:02:42.475Z,3.50
2018-05-08T11:05:10.024Z,3.73
2018-05-08T11:07:37.461Z,3.23
2018-05-08T11:10:04.958Z,2.60
2018-05-08T11:12:32.516Z,3.20
2018-05-08T11:14:59.923Z,2.70
2018-05-08T11:17:27.387Z,2.67
2018-05-08T11:19:54.859Z,3.60
2018-05-08T11:22:22.331Z,3.20
2018-05-08T11:24:49.822Z,2.80
2018-05-08T11:27:18.070Z,3.17
2018-05-08T11:29:45.597Z,3.27
2018-05-08T11:32:13.099Z,3.20
2018-05-08T11:34:40.608Z,2.67
2018-05-08T11:37:08.082Z,2.70
2018-05-08T11:39:35.596Z,3.30
2018-05-08T11:42:03.108Z,2.80
2018-05-08T11:44:30.649Z,3.20
2018-05-08T11:46:58.145Z,3.50
2018-05-08T11:49:25.674Z,3.37
2018-05-08T11:51:53.143Z,3.00
2018-05-08T11:54:20.620Z,3.40
2018-05-08T11:56:48.133Z,3.77
2018-05-08T11:59:15.639Z,3.30
2018-05-08T12:01:43.175Z,3.23
2018-05-08T12:04:10.652Z,3.63
2018-05-08T12:06:38.135Z,3.90
2018-05-08T12:09:05.652Z,3.57
2018-05-08T12:11:33.148Z,4.50
2018-05-08T12:14:00.651Z,3.63
2018-05-08T12:16:28.166Z,3.93
2018-05-08T12:18:55.673Z,3.90
2018-05-08T12:21:23.171Z,4.60
2018-05-08T12:23:50.668Z,4.30
2018-05-08T12:26:18.162Z,5.80
2018-05-08T12:28:45.651Z,3.90
2018-05-08T12:31:13.119Z,4.30
2018-05-08T12:33:40.619Z,4.47
2018-05-08T12:36:08.180Z,4.53
2018-05-08T12:38:35.662Z,4.30
2018-05-08T12:41:03.164Z,3.83
2018-05-08T12:43:30.710Z,3.90
2018-05-08T12:45:58.211Z,4.23
2018-05-08T12:48:25.689Z,4.60
2018-05-08T12:50:53.191Z,4.00
2018-05-08T12:53:20.679Z,4.47
2018-05-08T12:55:48.168Z,4.10
2018-05-08T12:58:15.651Z,4.50
2018-05-08T13:00:43.415Z,4.80
2018-05-08T13:03:10.917Z,4.07
2018-05-08T13:05:38.404Z,4.20
2018-05-08T13:08:05.940Z,3.80
2018-05-08T13:10:33.439Z,4.13
2018-05-08T13:13:00.921Z,3.90
2018-05-08T13:15:28.416Z,4.30
2018-05-08T13:17:55.907Z,3.93
2018-05-08T13:20:24.447Z,4.17
2018-05-08T13:22:51.952Z,4.20
2018-05-08T13:25:19.555Z,3.60
2018-05-08T13:27:47.068Z,3.47
2018-05-08T13:30:14.691Z,3.00
2018-05-08T13:32:42.216Z,3.03
2018-05-08T13:35:09.713Z,3.33
2018-05-08T13:37:37.201Z,3.83
2018-05-08T13:40:04.771Z,3.30
2018-05-08T13:42:32.282Z,2.80
2018-05-08T13:44:59.780Z,2.90
2018-05-08T13:47:27.279Z,3.90
2018-05-08T13:49:54.766Z,3.80
2018-05-08T13:52:22.238Z,3.80
2018-05-08T13:54:49.740Z,3.40
2018-05-08T13:57:17.248Z,3.20
2018-05-08T13:59:44.732Z,3.97
2018-05-08T14:02:12.224Z,3.33
2018-05-08T14:04:39.749Z,3.80
2018-05-08T14:07:07.289Z,2.90
2018-05-08T14:09:34.770Z,3.63
2018-05-08T14:12:02.281Z,3.50
2018-05-08T14:14:29.821Z,3.00
2018-05-08T14:16:57.325Z,3.90
2018-05-08T14:19:24.834Z,3.87
2018-05-08T14:21:52.358Z,4.17
2018-05-08T14:24:19.843Z,3.40
2018-05-08T14:26:47.343Z,3.60
2018-05-08T14:29:14.896Z,3.43
2018-05-08T14:31:42.435Z,3.37
2018-05-08T14:34:09.911Z,4.80
2018-05-08T14:36:37.423Z,3.90
2018-05-08T14:39:05.700Z,4.40
2018-05-08T14:41:33.215Z,3.90
2018-05-08T14:44:00.703Z,4.53
2018-05-08T14:46:28.262Z,4.30
2018-05-08T14:48:55.764Z,3.63
2018-05-08T14:51:23.252Z,4.33
2018-05-08T14:53:50.731Z,3.80
2018-05-08T14:56:18.225Z,4.90
2018-05-08T14:58:45.791Z,4.87
2018-05-08T15:01:13.291Z,4.77
2018-05-08T15:03:40.792Z,5.13
2018-05-08T15:06:08.381Z,5.13
2018-05-08T15:08:35.888Z,5.60
2018-05-08T15:11:03.376Z,5.17
2018-05-08T15:13:30.873Z,5.13
2018-05-08T15:15:58.359Z,5.40
2018-05-08T15:18:25.858Z,4.80
2018-05-08T15:20:53.349Z,5.30
2018-05-08T15:23:20.846Z,5.80
2018-05-08T15:25:48.330Z,5.93
2018-05-08T15:28:15.840Z,5.27
2018-05-08T15:30:43.335Z,5.70
2018-05-08T15:33:10.824Z,5.70
2018-05-08T15:35:38.317Z,5.40
2018-05-08T15:38:06.001Z,5.90
2018-05-08T15:40:33.527Z,5.23
2018-05-08T15:43:01.024Z,5.37
2018-05-08T15:45:28.519Z,4.70
2018-05-08T15:47:56.001Z,5.00
2018-05-08T15:50:23.502Z,4.03
2018-05-08T15:52:50.984Z,4.20
2018-05-08T15:55:18.570Z,4.50
2018-05-08T15:57:45.995Z,4.23
2018-05-08T16:00:13.557Z,4.23
2018-05-08T16:02:41.053Z,4.83
2018-05-08T16:05:08.584Z,4.23
2018-05-08T16:07:36.174Z,4.00
2018-05-08T16:10:03.711Z,3.87
2018-05-08T16:12:31.200Z,3.50
2018-05-08T16:14:58.681Z,3.30
2018-05-08T16:17:26.204Z,3.00
2018-05-08T16:19:53.730Z,2.87
2018-05-08T16:22:21.216Z,3.23
2018-05-08T16:24:48.713Z,3.30
2018-05-08T16:27:16.257Z,4.00
2018-05-08T16:29:43.765Z,4.53
2018-05-08T16:32:11.271Z,4.20
2018-05-08T16:34:38.771Z,3.93
2018-05-08T16:37:06.361Z,4.43
2018-05-08T16:39:33.933Z,5.73
2018-05-08T16:42:01.343Z,5.10
2018-05-08T16:44:28.932Z,4.57
2018-05-08T16:46:56.693Z,4.70
2018-05-08T16:49:24.236Z,4.37
2018-05-08T16:51:52.129Z,3.67
2018-05-08T16:54:19.687Z,4.03
2018-05-08T16:56:47.223Z,4.47
2018-05-08T16:59:15.821Z,4.30
2018-05-08T17:01:43.334Z,4.57
2018-05-08T17:04:10.858Z,5.03
2018-05-08T17:06:38.405Z,4.57
2018-05-08T17:09:05.948Z,4.50
2018-05-08T17:11:33.487Z,4.50
2018-05-08T17:14:01.025Z,3.93
2018-05-08T17:16:28.736Z,4.00
2018-05-08T17:18:56.334Z,3.63
2018-05-08T17:21:23.824Z,2.70
2018-05-08T17:23:51.312Z,2.30
2018-05-08T17:26:18.955Z,2.30
2018-05-08T17:28:46.457Z,3.20
2018-05-08T17:31:14.068Z,2.73
2018-05-08T17:33:41.680Z,2.80
2018-05-08T17:36:09.092Z,2.90
2018-05-08T17:38:36.657Z,2.23
2018-05-08T17:41:04.255Z,2.77
2018-05-08T17:43:31.804Z,2.63
2018-05-08T17:45:59.322Z,2.77
2018-05-08T17:48:26.851Z,3.40
2018-05-08T17:50:54.457Z,2.20
2018-05-08T17:53:21.971Z,3.10
2018-05-08T17:55:49.470Z,3.00
2018-05-08T17:58:16.965Z,3.30
2018-05-08T18:00:44.449Z,3.37
2018-05-08T18:03:11.989Z,3.30
2018-05-08T18:05:39.603Z,3.37
2018-05-08T18:08:07.314Z,3.40
2018-05-08T18:10:34.815Z,3.33
2018-05-08T18:13:02.448Z,3.80
2018-05-08T18:15:29.985Z,3.40
2018-05-08T18:17:57.516Z,4.90
2018-05-08T18:20:26.746Z,4.57
2018-05-08T18:22:54.226Z,3.90
2018-05-08T18:25:21.702Z,4.50
2018-05-08T18:27:49.193Z,4.00
2018-05-08T18:30:16.672Z,4.60
2018-05-08T18:32:44.478Z,4.80
2018-05-08T18:35:11.999Z,4.10
2018-05-08T18:37:39.499Z,5.90
2018-05-08T18:40:06.981Z,4.70
2018-05-08T18:42:34.535Z,4.90
2018-05-08T18:45:02.047Z,5.00
2018-05-08T18:47:29.517Z,5.00
2018-05-08T18:49:57.112Z,5.10
2018-05-08T18:52:24.613Z,6.10
2018-05-08T18:54:52.119Z,6.13
2018-05-08T18:57:20.014Z,5.90
2018-05-08T18:59:47.570Z,6.07
2018-05-08T19:02:15.196Z,6.40
2018-05-08T19:04:42.708Z,6.80
2018-05-08T19:07:10.275Z,7.77
2018-05-08T19:09:37.700Z,7.03
2018-05-08T19:12:05.177Z,7.33
2018-05-08T19:14:32.686Z,8.37
2018-05-08T19:17:00.153Z,7.50
2018-05-08T19:19:33.078Z,7.20
2018-05-08T19:22:01.378Z,6.47
2018-05-08T19:24:33.795Z,7.33
2018-05-08T19:27:01.365Z,6.43
2018-05-08T19:29:34.473Z,7.17
2018-05-08T19:32:02.102Z,7.13
2018-05-08T19:34:35.336Z,7.33
2018-05-08T19:37:08.341Z,7.90
2018-05-08T19:39:35.938Z,7.87
2018-05-08T19:42:03.545Z,7.33
2018-05-08T19:44:31.051Z,7.40
2018-05-08T19:46:58.546Z,8.17
2018-05-08T19:49:26.006Z,7.97
2018-05-08T19:51:53.811Z,8.70
2018-05-08T19:54:21.384Z,7.87
2018-05-08T19:56:48.995Z,9.50
2018-05-08T19:59:16.650Z,7.90
2018-05-08T20:01:44.810Z,7.80
2018-05-08T20:04:12.491Z,7.20
2018-05-08T20:06:40.228Z,7.60
2018-05-08T20:09:07.830Z,8.17
2018-05-08T20:11:35.362Z,6.90
2018-05-08T20:14:02.887Z,7.63
2018-05-08T20:16:30.439Z,6.30
2018-05-08T20:18:57.993Z,6.53
2018-05-08T20:21:25.612Z,7.70
2018-05-08T20:23:53.192Z,6.00
2018-05-08T20:26:20.705Z,7.50
2018-05-08T20:28:48.254Z,7.10
2018-05-08T20:31:15.854Z,6.90
2018-05-08T20:33:43.553Z,7.27
2018-05-08T20:36:11.169Z,7.30
2018-05-08T20:38:38.707Z,6.77
2018-05-08T20:41:06.271Z,6.50
2018-05-08T20:43:33.825Z,7.20
2018-05-08T20:46:01.303Z,7.87
2018-05-08T20:48:28.887Z,7.53
2018-05-08T20:50:56.409Z,7.90
2018-05-08T20:53:24.004Z,7.30
2018-05-08T20:55:51.579Z,6.90
2018-05-08T20:58:19.096Z,7.30
2018-05-08T21:00:46.565Z,7.30
2018-05-08T21:03:14.110Z,7.47
2018-05-08T21:05:41.625Z,8.20
2018-05-08T21:08:09.091Z,8.20
2018-05-08T21:10:36.564Z,8.10
2018-05-08T21:13:04.104Z,7.40
2018-05-08T21:15:32.202Z,7.53
2018-05-08T21:17:59.734Z,7.17
2018-05-08T21:20:27.171Z,7.60
2018-05-08T21:22:54.642Z,8.20
2018-05-08T21:25:22.093Z,7.60
2018-05-08T21:27:55.786Z,8.57
2018-05-08T21:33:33.538Z,8.07
2018-05-08T21:36:01.068Z,8.73
2018-05-08T21:38:28.533Z,8.60
2018-05-08T21:40:57.186Z,9.90
2018-05-08T21:43:24.792Z,10.97
2018-05-08T21:45:52.277Z,8.60
2018-05-08T21:48:19.761Z,8.63
2018-05-08T21:50:47.267Z,9.77
2018-05-08T21:53:14.863Z,7.90
2018-05-08T21:55:42.313Z,8.57
2018-05-08T21:58:09.803Z,8.73
2018-05-08T22:00:37.282Z,8.73
2018-05-08T22:03:04.743Z,8.10
2018-05-08T22:05:32.214Z,7.57
2018-05-08T22:08:00.764Z,7.10
2018-05-08T22:10:28.264Z,8.23
2018-05-08T22:12:55.713Z,7.50
2018-05-08T22:15:23.173Z,7.43
2018-05-08T22:17:50.643Z,8.43
2018-05-08T22:20:18.197Z,8.73
2018-05-08T22:22:45.624Z,8.63
2018-05-08T22:25:13.115Z,7.50
2018-05-08T22:27:40.594Z,8.40
2018-05-08T22:30:08.064Z,8.47
2018-05-08T22:32:35.583Z,7.87
2018-05-08T22:35:03.077Z,8.07
2018-05-08T22:37:30.557Z,7.47
2018-05-08T22:39:58.045Z,7.90
2018-05-08T22:42:25.543Z,7.20
2018-05-08T22:44:53.051Z,7.03
2018-05-08T22:47:20.699Z,7.43
2018-05-08T22:49:48.163Z,7.53
2018-05-08T22:52:15.635Z,7.67
2018-05-08T22:54:43.110Z,7.60
2018-05-08T22:57:10.595Z,8.63
2018-05-08T22:59:38.081Z,8.93
2018-05-08T23:02:05.545Z,8.90
2018-05-08T23:04:33.036Z,9.30
2018-05-08T23:07:00.516Z,8.87
2018-05-08T23:09:27.998Z,8.27
2018-05-08T23:11:55.466Z,8.60
2018-05-08T23:14:22.939Z,8.53
2018-05-08T23:16:50.410Z,7.40
2018-05-08T23:19:17.894Z,7.93
2018-05-08T23:21:45.346Z,6.60
2018-05-08T23:24:12.822Z,7.43
2018-05-08T23:26:40.327Z,7.10
2018-05-08T23:29:07.794Z,7.83
2018-05-08T23:31:35.256Z,7.80
2018-05-08T23:34:02.734Z,7.80
2018-05-08T23:36:30.181Z,7.87
2018-05-08T23:38:57.662Z,7.43
2018-05-08T23:41:25.112Z,7.40
2018-05-08T23:43:52.665Z,7.33
2018-05-08T23:46:20.161Z,6.70
2018-05-08T23:48:47.614Z,6.97
2018-05-08T23:51:15.086Z,7.70
2018-05-08T23:53:42.538Z,8.13
2018-05-08T23:56:10.002Z,7.40
2018-05-08T23:58:37.455Z,6.93
